Time;durP1;ratioP1;P1;durP2;ratioP2;P2;SDS_P1;SDS_P2;PMS_P1;PMS_P2;Temp;Humidity;BMP_temperature;BMP_pressure;BME280_temperature;BME280_humidity;BME280_pressure;Samples;Min_cycle;Max_cycle;Signal;HPM_P1;HPM_P2
2022/05/31 00:00:25;;;;;;;;;;;;;;;26.50;32.51;93700.78;5018666;28;7278;-60
2022/05/31 00:03:05;;;;;;;;;;;;;;;26.50;32.60;93701.50;4982073;28;7512;-61
2022/05/31 00:05:33;;;;;;;;;;;;;;;26.49;32.70;93711.06;4983947;28;7486;-61
2022/05/31 00:08:10;;;;;;;;;;;;;;;26.49;33.16;93699.31;4982422;28;8516;-60
2022/05/31 00:10:39;;;;;;;;;;;;;;;26.43;32.40;93702.16;4986635;28;7079;-60
2022/05/31 00:13:12;;;;;;;;;;;;;;;26.46;32.24;93698.34;4996261;28;9065;-60
2022/05/31 00:15:38;;;;;;;;;;;;;;;26.44;32.30;93691.88;4984906;28;7470;-60
2022/05/31 00:18:04;;;;;;;;;;;;;;;26.47;32.59;93691.53;4987227;28;8717;-60
2022/05/31 00:20:30;;;;;;;;;;;;;;;26.47;32.67;93693.56;5003767;28;9065;-60
2022/05/31 00:22:57;;;;;;;;;;;;;;;26.47;32.55;93701.84;4986403;28;9637;-60
2022/05/31 00:25:29;;;;;;;;;;;;;;;26.46;32.17;93698.34;5010049;28;8861;-61
2022/05/31 00:28:24;;;;;;;;;;;;;;;26.46;32.90;93694.84;4983722;28;8888;-60
2022/05/31 00:30:52;;;;;;;;;;;;;;;26.45;33.11;93694.09;4977677;28;8693;-60
2022/05/31 00:33:19;;;;;;;;;;;;;;;26.43;32.41;93690.38;4979366;28;7584;-60
2022/05/31 00:35:49;;;;;;;;;;;;;;;26.44;33.02;93698.13;4961460;28;9350;-60
2022/05/31 00:38:17;;;;;;;;;;;;;;;26.43;32.06;93693.13;4983373;28;7163;-60
2022/05/31 00:40:43;;;;;;;;;;;;;;;26.43;32.24;93688.38;4977669;28;9504;-61
2022/05/31 00:43:13;;;;;;;;;;;;;;;26.41;33.24;93682.66;4972927;28;9100;-61
2022/05/31 00:45:50;;;;;;;;;;;;;;;26.42;33.07;93697.19;4977667;28;7144;-61
2022/05/31 00:48:43;;;;;;;;;;;;;;;26.40;32.43;93692.22;4971070;28;9105;-60
2022/05/31 00:51:40;;;;;;;;;;;;;;;26.42;32.68;93702.69;4967407;28;8736;-61
2022/05/31 00:54:21;;;;;;;;;;;;;;;26.39;32.70;93690.72;4966609;28;7268;-60
2022/05/31 00:56:54;;;;;;;;;;;;;;;26.39;32.70;93710.00;4966345;28;9430;-60
2022/05/31 00:59:27;;;;;;;;;;;;;;;26.40;32.38;93696.97;4974228;28;9332;-61
2022/05/31 01:01:56;;;;;;;;;;;;;;;26.39;32.68;93698.25;4976037;28;9131;-60
2022/05/31 01:04:57;;;;;;;;;;;;;;;26.38;32.67;93705.75;4973440;28;9330;-60
2022/05/31 01:07:23;;;;;;;;;;;;;;;26.38;32.45;93710.56;4882971;29;8711;-60
2022/05/31 01:09:51;;;;;;;;;;;;;;;26.36;32.94;93711.06;4894215;29;7007;-60
2022/05/31 01:12:23;;;;;;;;;;;;;;;26.37;32.84;93712.56;4892001;29;7256;-60
2022/05/31 01:14:49;;;;;;;;;;;;;;;26.37;32.50;93711.81;4890649;29;9513;-60
2022/05/31 01:17:32;;;;;;;;;;;;;;;26.36;32.42;93699.31;4887396;29;7850;-61
2022/05/31 01:20:21;;;;;;;;;;;;;;;26.36;33.37;93707.59;4915739;29;6866;-60
2022/05/31 01:23:06;;;;;;;;;;;;;;;26.35;32.79;93706.09;4924753;29;9179;-60
2022/05/31 01:25:58;;;;;;;;;;;;;;;26.30;32.55;93701.44;4914114;29;7076;-60
2022/05/31 01:29:14;;;;;;;;;;;;;;;26.33;33.15;93703.88;4898573;29;7260;-60
2022/05/31 01:32:08;;;;;;;;;;;;;;;26.31;32.47;93700.91;4910410;29;7321;-60
2022/05/31 01:35:10;;;;;;;;;;;;;;;26.32;33.27;93718.19;4910199;29;7184;-60
2022/05/31 01:38:04;;;;;;;;;;;;;;;26.31;32.95;93713.94;4871593;29;8154;-61
2022/05/31 01:41:06;;;;;;;;;;;;;;;26.30;32.48;93709.69;4848773;29;7240;-60
2022/05/31 01:43:33;;;;;;;;;;;;;;;26.30;32.95;93704.19;4891142;29;9157;-61
2022/05/31 01:46:06;;;;;;;;;;;;;;;26.31;32.35;93711.19;4893491;29;7269;-60
2022/05/31 01:48:43;;;;;;;;;;;;;;;26.29;32.86;93711.00;4891995;29;7421;-60
2022/05/31 01:51:20;;;;;;;;;;;;;;;26.24;33.16;93718.09;4896822;29;7016;-60
2022/05/31 01:54:00;;;;;;;;;;;;;;;26.26;32.65;93721.06;4909838;29;9196;-60
2022/05/31 01:56:52;;;;;;;;;;;;;;;26.25;33.12;93724.34;4908612;29;9149;-60
2022/05/31 01:59:43;;;;;;;;;;;;;;;26.24;32.84;93718.09;4896500;29;7467;-60
2022/05/31 02:02:27;;;;;;;;;;;;;;;26.24;32.57;93714.59;4899352;29;8763;-61
2022/05/31 02:05:06;;;;;;;;;;;;;;;26.22;32.91;93723.41;4907639;29;7368;-60
2022/05/31 02:07:33;;;;;;;;;;;;;;;26.23;32.85;93719.34;4913676;29;9035;-60
2022/05/31 02:10:01;;;;;;;;;;;;;;;26.22;33.17;93722.66;4891674;29;8458;-61
2022/05/31 02:12:30;;;;;;;;;;;;;;;26.23;33.26;93726.91;4899409;28;7368;-61
2022/05/31 02:15:08;;;;;;;;;;;;;;;26.23;33.45;93735.16;4949333;28;9546;-60
2022/05/31 02:17:36;;;;;;;;;;;;;;;26.20;33.30;93733.47;4973753;28;7659;-60
2022/05/31 02:20:06;;;;;;;;;;;;;;;26.19;33.08;93732.72;4994622;28;7277;-60
2022/05/31 02:22:33;;;;;;;;;;;;;;;26.19;33.38;93734.75;4991240;28;9342;-60
2022/05/31 02:25:00;;;;;;;;;;;;;;;26.19;32.92;93738.22;5008299;28;9172;-60
2022/05/31 02:27:26;;;;;;;;;;;;;;;26.19;32.77;93732.00;5001325;28;7280;-60
2022/05/31 02:29:52;;;;;;;;;;;;;;;26.19;32.70;93729.97;4987823;28;7517;-60
2022/05/31 02:32:18;;;;;;;;;;;;;;;26.20;33.48;93730.72;4977980;28;9366;-61
2022/05/31 02:34:49;;;;;;;;;;;;;;;26.16;32.75;93728.28;4985641;28;7246;-61
2022/05/31 02:37:16;;;;;;;;;;;;;;;26.17;33.03;93733.25;4996703;28;9417;-61
2022/05/31 02:39:42;;;;;;;;;;;;;;;26.17;33.28;93741.53;4984651;28;7564;-61
2022/05/31 02:42:12;;;;;;;;;;;;;;;26.16;32.72;93742.06;4987367;28;9086;-61
2022/05/31 02:44:41;;;;;;;;;;;;;;;26.18;33.25;93747.78;5017218;28;9772;-60
2022/05/31 02:47:10;;;;;;;;;;;;;;;26.16;33.20;93742.06;5004962;28;7619;-61
2022/05/31 02:49:38;;;;;;;;;;;;;;;26.13;32.96;93741.09;4987089;28;9615;-60
2022/05/31 02:52:19;;;;;;;;;;;;;;;26.13;32.94;93749.38;4986073;28;6998;-60
2022/05/31 02:54:52;;;;;;;;;;;;;;;26.11;33.62;93732.63;5002968;28;7202;-60
2022/05/31 02:57:18;;;;;;;;;;;;;;;26.13;32.83;93743.84;5012791;28;9210;-60
2022/05/31 03:00:18;;;;;;;;;;;;;;;26.12;32.88;93742.34;4990127;28;7327;-60
2022/05/31 03:03:22;;;;;;;;;;;;;;;26.11;32.83;93738.13;4984761;28;7196;-60
2022/05/31 03:05:58;;;;;;;;;;;;;;;26.11;33.06;93740.13;4973337;28;9148;-60
2022/05/31 03:08:26;;;;;;;;;;;;;;;26.11;32.91;93738.13;4955862;28;8999;-60
2022/05/31 03:11:16;;;;;;;;;;;;;;;26.10;33.52;93739.41;4984259;28;9032;-60
2022/05/31 03:14:20;;;;;;;;;;;;;;;26.10;32.76;93741.41;4982125;28;9010;-60
2022/05/31 03:17:10;;;;;;;;;;;;;;;26.10;32.78;93744.16;4920441;29;7288;-60
2022/05/31 03:19:44;;;;;;;;;;;;;;;26.10;33.00;93735.88;4915285;29;7287;-61
2022/05/31 03:22:23;;;;;;;;;;;;;;;26.09;33.37;93743.44;4913056;29;7386;-60
2022/05/31 03:25:07;;;;;;;;;;;;;;;26.07;33.77;93734.94;4912234;29;7360;-60
2022/05/31 03:27:45;;;;;;;;;;;;;;;26.08;33.66;93733.66;4929805;29;7169;-61
2022/05/31 03:30:19;;;;;;;;;;;;;;;26.08;33.14;93739.19;4931211;29;7508;-61
2022/05/31 03:32:57;;;;;;;;;;;;;;;26.09;33.11;93739.94;4905494;29;7006;-60
2022/05/31 03:35:25;;;;;;;;;;;;;;;26.07;33.81;93734.94;4905269;29;8713;-60
2022/05/31 03:38:07;;;;;;;;;;;;;;;26.07;33.77;93728.66;4917356;29;6969;-60
2022/05/31 03:43:18;;;;;;;;;;;;;;;26.06;33.65;93733.44;4925114;29;9159;-60
2022/05/31 03:45:44;;;;;;;;;;;;;;;26.05;33.63;93728.47;4920917;28;7487;-60
2022/05/31 03:48:32;;;;;;;;;;;;;;;26.05;32.91;93723.69;4916905;29;8990;-60
2022/05/31 03:51:32;;;;;;;;;;;;;;;26.04;33.81;93724.19;4934522;28;7533;-60
2022/05/31 03:54:11;;;;;;;;;;;;;;;26.04;33.41;93724.94;4991338;28;7268;-60
2022/05/31 03:56:50;;;;;;;;;;;;;;;26.03;33.64;93731.72;4980436;28;9054;-60
2022/05/31 03:59:39;;;;;;;;;;;;;;;26.03;33.77;93728.25;4982662;28;7210;-60
2022/05/31 04:02:07;;;;;;;;;;;;;;;26.02;33.58;93724.00;4989031;28;7291;-60
2022/05/31 04:04:34;;;;;;;;;;;;;;;26.01;33.75;93730.78;4990768;28;6996;-61
2022/05/31 04:07:01;;;;;;;;;;;;;;;26.01;33.07;93728.75;4984363;28;7271;-60
2022/05/31 04:09:39;;;;;;;;;;;;;;;25.99;33.13;93731.31;4976773;28;7187;-60
2022/05/31 04:12:15;;;;;;;;;;;;;;;26.02;33.55;93735.75;4976411;28;7174;-60
2022/05/31 04:14:41;;;;;;;;;;;;;;;26.01;33.91;93747.31;4992398;28;9560;-60
2022/05/31 04:17:07;;;;;;;;;;;;;;;26.00;33.43;93752.09;4985113;28;7223;-61
2022/05/31 04:19:34;;;;;;;;;;;;;;;26.03;33.51;93742.03;4979214;28;7246;-61
2022/05/31 04:21:59;;;;;;;;;;;;;;;26.02;33.29;93743.28;5005811;28;9046;-61
2022/05/31 04:24:26;;;;;;;;;;;;;;;25.96;33.07;93746.16;4992331;28;7295;-60
2022/05/31 04:27:01;;;;;;;;;;;;;;;25.98;33.64;93743.59;4979750;28;7324;-60
2022/05/31 04:29:30;;;;;;;;;;;;;;;25.95;33.27;93741.91;4973754;28;7284;-60
2022/05/31 04:31:56;;;;;;;;;;;;;;;25.97;33.57;93755.88;4984167;28;9520;-60
2022/05/31 04:34:24;;;;;;;;;;;;;;;25.96;33.18;93746.16;4978649;28;9215;-60
2022/05/31 04:36:57;;;;;;;;;;;;;;;25.97;32.76;93746.88;4995162;28;9085;-60
2022/05/31 04:39:23;;;;;;;;;;;;;;;25.93;33.12;93741.69;4974964;28;8772;-60
2022/05/31 04:41:51;;;;;;;;;;;;;;;25.96;33.30;93756.44;5010438;28;7243;-60
2022/05/31 04:44:18;;;;;;;;;;;;;;;25.96;33.91;93748.91;4985571;28;7052;-60
2022/05/31 04:46:44;;;;;;;;;;;;;;;25.95;33.97;93763.19;4986533;28;8766;-60
2022/05/31 04:49:14;;;;;;;;;;;;;;;25.93;33.13;93760.97;5005898;28;7009;-60
2022/05/31 04:51:43;;;;;;;;;;;;;;;25.92;33.99;93758.75;4990726;28;9283;-62
2022/05/31 04:54:30;;;;;;;;;;;;;;;25.95;33.12;93765.94;4979986;28;7283;-60
2022/05/31 04:57:04;;;;;;;;;;;;;;;25.94;33.82;93756.97;4979574;28;9139;-60
2022/05/31 04:59:30;;;;;;;;;;;;;;;25.95;33.59;93761.19;4976211;28;8748;-61
2022/05/31 05:01:58;;;;;;;;;;;;;;;25.95;33.19;93754.94;4979211;28;7184;-60
2022/05/31 05:04:34;;;;;;;;;;;;;;;25.95;33.56;93755.69;4977817;28;9106;-60
2022/05/31 05:07:02;;;;;;;;;;;;;;;25.94;33.56;93756.97;4987929;28;7237;-60
2022/05/31 05:09:36;;;;;;;;;;;;;;;25.97;34.07;93753.13;5008434;28;9139;-61
2022/05/31 05:12:15;;;;;;;;;;;;;;;25.94;33.14;93753.47;4987440;28;8874;-61
2022/05/31 05:14:53;;;;;;;;;;;;;;;25.94;33.77;93756.97;5001121;28;9415;-61
2022/05/31 05:17:32;;;;;;;;;;;;;;;25.91;33.71;93744.22;5009051;28;8990;-60
2022/05/31 05:19:59;;;;;;;;;;;;;;;25.92;34.27;93751.25;5006988;28;6980;-60
2022/05/31 05:22:34;;;;;;;;;;;;;;;25.89;33.57;93759.81;4992450;28;9030;-60
2022/05/31 05:25:00;;;;;;;;;;;;;;;25.89;33.38;93757.78;4991876;28;9043;-60
2022/05/31 05:27:29;;;;;;;;;;;;;;;25.87;33.65;93754.81;5013366;28;8754;-60
2022/05/31 05:32:41;;;;;;;;;;;;;;;25.88;34.05;93770.06;4984708;28;7230;-61
2022/05/31 05:35:09;;;;;;;;;;;;;;;25.86;34.34;93764.34;4989686;28;7280;-60
2022/05/31 05:37:36;;;;;;;;;;;;;;;25.87;33.76;93762.34;4995041;28;6966;-60
2022/05/31 05:40:02;;;;;;;;;;;;;;;25.87;33.90;93765.84;4981760;28;7058;-61
2022/05/31 05:42:28;;;;;;;;;;;;;;;25.86;33.62;93761.59;5000050;28;7305;-60
2022/05/31 05:44:54;;;;;;;;;;;;;;;25.87;33.78;93752.06;4989364;28;9103;-61
2022/05/31 05:47:21;;;;;;;;;;;;;;;25.88;34.03;93758.34;4980755;28;7048;-60
2022/05/31 05:49:47;;;;;;;;;;;;;;;25.86;33.27;93764.34;5004972;28;7348;-60
2022/05/31 05:52:18;;;;;;;;;;;;;;;25.88;34.32;93764.56;4987751;28;7966;-60
2022/05/31 05:54:48;;;;;;;;;;;;;;;25.88;34.42;93770.06;4980267;28;9458;-60
2022/05/31 05:57:20;;;;;;;;;;;;;;;25.87;34.01;93749.31;5006470;28;7278;-60
2022/05/31 05:59:56;;;;;;;;;;;;;;;25.86;33.59;93756.09;4998724;28;9030;-60
2022/05/31 06:02:32;;;;;;;;;;;;;;;25.88;33.51;93756.28;4991660;28;9277;-60
2022/05/31 06:05:25;;;;;;;;;;;;;;;25.87;33.87;93760.34;5000707;28;9326;-60
2022/05/31 06:08:19;;;;;;;;;;;;;;;25.90;33.68;93762.03;5002612;28;9024;-60
2022/05/31 06:11:36;;;;;;;;;;;;;;;25.91;34.59;93766.28;4989298;28;7184;-60
2022/05/31 06:14:37;;;;;;;;;;;;;;;25.90;34.73;93772.31;5020269;28;6995;-60
2022/05/31 06:17:13;;;;;;;;;;;;;;;25.88;34.65;93761.81;4960347;28;9397;-60
2022/05/31 06:20:01;;;;;;;;;;;;;;;25.86;34.35;93775.38;4953872;28;7022;-60
2022/05/31 06:22:30;;;;;;;;;;;;;;;25.86;34.23;93778.13;4962087;28;7093;-60
2022/05/31 06:25:00;;;;;;;;;;;;;;;25.83;34.83;93767.44;4947769;28;7074;-60
2022/05/31 06:27:27;;;;;;;;;;;;;;;25.80;34.21;93773.97;4965233;28;7194;-60
2022/05/31 06:29:53;;;;;;;;;;;;;;;25.82;34.38;93790.72;4948131;28;9714;-60
2022/05/31 06:32:19;;;;;;;;;;;;;;;25.80;35.00;93779.50;4948209;28;7554;-60
2022/05/31 06:35:10;;;;;;;;;;;;;;;25.81;34.92;93776.22;4965791;28;9401;-60
2022/05/31 06:37:47;;;;;;;;;;;;;;;25.81;34.63;93784.50;4952779;28;9153;-60
2022/05/31 06:40:13;;;;;;;;;;;;;;;25.79;35.13;93784.28;4954399;28;9216;-60
2022/05/31 06:42:39;;;;;;;;;;;;;;;25.80;34.62;93788.50;4957484;28;7441;-60
2022/05/31 06:45:05;;;;;;;;;;;;;;;25.78;35.29;93782.78;4953417;28;9236;-60
2022/05/31 06:47:31;;;;;;;;;;;;;;;25.78;34.93;93782.03;4945553;28;7209;-60
2022/05/31 06:50:28;;;;;;;;;;;;;;;25.77;34.59;93786.81;4934626;28;9297;-60
2022/05/31 06:58:36;;;;;;;;;;;;;;;25.78;34.41;93788.28;4978947;28;7238;-60
2022/05/31 07:01:10;;;;;;;;;;;;;;;25.77;34.66;93803.34;5003192;28;7002;-60
2022/05/31 07:03:37;;;;;;;;;;;;;;;25.74;35.23;93787.84;4998887;28;6981;-60
2022/05/31 07:06:30;;;;;;;;;;;;;;;25.77;34.50;93786.81;4984445;28;8006;-60
2022/05/31 07:09:05;;;;;;;;;;;;;;;25.75;34.66;93797.59;5013001;28;7368;-59
2022/05/31 07:11:46;;;;;;;;;;;;;;;25.75;35.06;93794.84;4998779;28;9352;-59
2022/05/31 07:14:19;;;;;;;;;;;;;;;25.72;34.58;93786.91;4978721;28;7248;-60
2022/05/31 07:16:57;;;;;;;;;;;;;;;25.76;34.62;93790.81;5016848;28;7168;-60
2022/05/31 07:19:31;;;;;;;;;;;;;;;25.75;35.04;93789.31;5013579;28;8144;-59
2022/05/31 07:22:15;;;;;;;;;;;;;;;25.75;34.52;93794.84;4989314;28;9330;-59
2022/05/31 07:24:50;;;;;;;;;;;;;;;25.77;34.67;93786.81;4981838;28;7257;-60
2022/05/31 07:27:20;;;;;;;;;;;;;;;25.77;34.56;93792.31;4989425;28;8767;-60
2022/05/31 07:29:56;;;;;;;;;;;;;;;25.78;34.67;93787.53;5012236;28;7367;-60
2022/05/31 07:32:22;;;;;;;;;;;;;;;25.77;34.96;93786.06;5000219;28;7271;-60
2022/05/31 07:34:55;;;;;;;;;;;;;;;25.77;34.62;93792.31;4986452;28;8736;-60
2022/05/31 07:37:48;;;;;;;;;;;;;;;25.77;35.01;93794.34;5010773;28;9392;-60
2022/05/31 07:40:13;;;;;;;;;;;;;;;25.77;34.99;93800.59;4980247;28;9180;-60
2022/05/31 07:42:42;;;;;;;;;;;;;;;25.77;35.18;93797.09;4966160;28;7281;-60
2022/05/31 07:45:08;;;;;;;;;;;;;;;25.76;35.55;93790.81;4985404;28;8749;-60
2022/05/31 07:47:49;;;;;;;;;;;;;;;25.77;35.01;93795.09;4982629;28;8823;-60
2022/05/31 07:50:26;;;;;;;;;;;;;;;25.77;35.16;93797.84;4967203;28;7149;-60
2022/05/31 07:53:03;;;;;;;;;;;;;;;25.78;34.56;93795.81;4977642;28;9415;-60
2022/05/31 07:55:30;;;;;;;;;;;;;;;25.78;34.58;93796.56;4959120;28;7196;-60
2022/05/31 08:00:54;;;;;;;;;;;;;;;25.78;34.95;93793.06;4979326;28;9098;-60
2022/05/31 08:03:42;;;;;;;;;;;;;;;25.78;35.19;93798.56;4982968;28;7246;-60
2022/05/31 08:06:16;;;;;;;;;;;;;;;25.76;35.00;93792.84;4980068;28;7283;-60
2022/05/31 08:08:43;;;;;;;;;;;;;;;25.77;34.33;93786.81;4973166;28;7208;-60
2022/05/31 08:11:20;;;;;;;;;;;;;;;25.77;34.96;93800.59;4972013;28;7078;-60
2022/05/31 08:13:50;;;;;;;;;;;;;;;25.78;34.90;93796.56;4979202;28;7286;-60
2022/05/31 08:16:18;;;;;;;;;;;;;;;25.79;34.71;93794.53;4969048;28;7264;-60
2022/05/31 08:19:01;;;;;;;;;;;;;;;25.79;34.85;93802.81;4983281;28;7263;-60
2022/05/31 08:21:31;;;;;;;;;;;;;;;25.78;35.35;93804.06;4986851;28;7995;-60
2022/05/31 08:24:02;;;;;;;;;;;;;;;25.76;34.95;93801.84;4990209;28;7053;-60
2022/05/31 08:26:30;;;;;;;;;;;;;;;25.76;34.72;93804.59;5003813;28;7276;-60
2022/05/31 08:28:56;;;;;;;;;;;;;;;25.76;35.29;93804.59;5002263;28;8730;-60
2022/05/31 08:31:28;;;;;;;;;;;;;;;25.78;34.80;93810.31;5002874;28;7235;-60
2022/05/31 08:33:54;;;;;;;;;;;;;;;25.78;35.04;93809.56;4990144;28;7356;-60
2022/05/31 08:36:22;;;;;;;;;;;;;;;25.79;35.18;93811.06;4983962;28;7236;-60
2022/05/31 08:38:48;;;;;;;;;;;;;;;25.78;34.93;93810.31;4982111;28;7251;-60
2022/05/31 08:41:30;;;;;;;;;;;;;;;25.78;35.08;93815.84;5002384;28;7244;-60
2022/05/31 08:44:18;;;;;;;;;;;;;;;25.79;35.56;93813.81;5006073;28;8750;-60
2022/05/31 08:47:01;;;;;;;;;;;;;;;25.79;35.48;93811.81;5016100;28;7023;-60
2022/05/31 08:53:26;;;;;;;;;;;;;;;25.78;34.82;93810.31;4982922;28;9488;-60
2022/05/31 08:59:46;;;;;;;;;;;;;;;25.79;35.65;93817.34;4985152;28;7029;-60
2022/05/31 09:02:49;;;;;;;;;;;;;;;25.79;35.76;93813.81;4953062;28;7622;-60
2022/05/31 09:05:40;;;;;;;;;;;;;;;25.78;34.78;93813.06;4972905;28;7082;-60
2022/05/31 09:08:28;;;;;;;;;;;;;;;25.81;35.74;93808.53;4971517;28;7015;-60
2022/05/31 09:11:03;;;;;;;;;;;;;;;25.81;35.26;93803.03;4982151;28;9929;-60
2022/05/31 09:14:10;;;;;;;;;;;;;;;25.79;34.87;93800.81;4972413;28;7120;-60
2022/05/31 09:16:58;;;;;;;;;;;;;;;25.84;34.92;93796.44;4914873;29;7902;-60
2022/05/31 09:19:40;;;;;;;;;;;;;;;25.83;34.82;93809.50;4897536;29;9938;-60
2022/05/31 09:22:07;;;;;;;;;;;;;;;25.86;35.41;93810.47;4913470;29;7308;-61
2022/05/31 09:24:41;;;;;;;;;;;;;;;25.89;35.26;93810.16;4913761;29;7246;-60
2022/05/31 09:27:22;;;;;;;;;;;;;;;25.88;35.32;93811.41;4900446;29;6868;-60
2022/05/31 09:30:25;;;;;;;;;;;;;;;25.88;35.16;93811.41;4910559;29;9264;-61
2022/05/31 09:36:37;;;;;;;;;;;;;;;25.89;34.90;93814.91;4887260;29;7275;-61
2022/05/31 09:39:24;;;;;;;;;;;;;;;25.89;35.49;93812.91;4880506;29;8245;-60
2022/05/31 09:42:04;;;;;;;;;;;;;;;25.89;35.38;93801.88;4897254;29;9145;-60
2022/05/31 09:44:38;;;;;;;;;;;;;;;25.90;35.06;93805.38;4896738;29;9170;-60
2022/05/31 09:47:32;;;;;;;;;;;;;;;25.91;34.66;93804.09;4895621;29;7251;-60
2022/05/31 09:50:00;;;;;;;;;;;;;;;25.90;35.18;93797.84;4885858;29;7303;-60
2022/05/31 09:52:45;;;;;;;;;;;;;;;25.92;35.05;93800.84;4911153;29;7060;-60
2022/05/31 09:58:15;;;;;;;;;;;;;;;25.92;34.95;93792.56;4914284;29;8980;-60
2022/05/31 10:01:04;;;;;;;;;;;;;;;25.94;34.59;93797.53;4907096;29;7243;-60
2022/05/31 10:03:40;;;;;;;;;;;;;;;25.94;34.73;93794.78;4911887;28;7282;-60
2022/05/31 10:06:15;;;;;;;;;;;;;;;25.94;35.55;93792.03;4907791;29;7405;-60
2022/05/31 10:08:42;;;;;;;;;;;;;;;25.94;35.33;93790.03;4921066;28;7248;-60
2022/05/31 10:11:14;;;;;;;;;;;;;;;25.96;35.12;93798.50;4922304;29;7239;-60
2022/05/31 10:13:56;;;;;;;;;;;;;;;25.95;35.66;93797.00;4974756;28;7238;-60
2022/05/31 10:16:30;;;;;;;;;;;;;;;25.97;35.55;93790.97;4985856;28;7632;-60
2022/05/31 10:19:01;;;;;;;;;;;;;;;25.97;35.38;93802.72;4992920;28;9156;-60
2022/05/31 10:21:43;;;;;;;;;;;;;;;25.98;35.17;93807.00;4990918;28;9005;-60
2022/05/31 10:24:26;;;;;;;;;;;;;;;25.96;35.03;93811.53;4986014;28;9850;-60
2022/05/31 10:27:31;;;;;;;;;;;;;;;25.96;35.37;93809.53;5002639;28;9552;-60
2022/05/31 10:30:32;;;;;;;;;;;;;;;25.96;35.11;93812.28;4984376;28;9524;-61
2022/05/31 10:33:21;;;;;;;;;;;;;;;25.97;34.59;93815.75;4999337;28;7167;-60
2022/05/31 10:36:06;;;;;;;;;;;;;;;25.93;35.08;93826.34;5000960;28;9073;-60
2022/05/31 10:38:44;;;;;;;;;;;;;;;25.96;35.35;93830.81;4991951;28;8816;-60
2022/05/31 10:41:21;;;;;;;;;;;;;;;25.95;34.52;93835.59;4993959;28;8618;-60
2022/05/31 10:43:58;;;;;;;;;;;;;;;25.96;34.39;93842.59;5002574;28;9132;-60
2022/05/31 10:46:42;;;;;;;;;;;;;;;25.96;35.32;93850.88;5022356;28;7124;-61
2022/05/31 10:49:20;;;;;;;;;;;;;;;25.95;34.95;93843.84;5002780;28;7333;-60
2022/05/31 10:51:50;;;;;;;;;;;;;;;25.96;34.59;93853.63;4990076;28;6996;-60
2022/05/31 10:54:40;;;;;;;;;;;;;;;25.95;34.89;93851.38;4999842;28;7354;-61
2022/05/31 10:57:48;;;;;;;;;;;;;;;25.96;34.80;93863.88;5004532;28;7629;-60
2022/05/31 11:00:52;;;;;;;;;;;;;;;25.96;34.53;93881.19;5006843;28;9113;-60
2022/05/31 11:03:35;;;;;;;;;;;;;;;25.95;34.85;93874.16;4997273;28;9198;-60
2022/05/31 11:06:27;;;;;;;;;;;;;;;25.96;34.96;93881.19;5003585;28;7142;-60
2022/05/31 11:12:12;;;;;;;;;;;;;;;25.98;34.29;93888.91;5000316;28;7315;-60
2022/05/31 11:14:53;;;;;;;;;;;;;;;25.96;35.07;93877.66;4987377;28;7507;-60
2022/05/31 11:17:55;;;;;;;;;;;;;;;25.99;35.18;93891.13;5003236;28;7275;-60
2022/05/31 11:20:27;;;;;;;;;;;;;;;25.99;34.43;93895.91;4990603;28;9122;-60
2022/05/31 11:23:09;;;;;;;;;;;;;;;26.00;34.82;93891.88;4991299;28;7115;-60
2022/05/31 11:26:03;;;;;;;;;;;;;;;26.00;35.21;93898.13;4991948;28;7535;-60
2022/05/31 11:29:07;;;;;;;;;;;;;;;26.00;35.31;93898.13;5002345;28;9094;-60
2022/05/31 11:32:03;;;;;;;;;;;;;;;26.01;34.74;93896.84;4969274;28;7262;-60
2022/05/31 11:34:56;;;;;;;;;;;;;;;26.01;34.52;93894.09;4965801;28;7638;-60
2022/05/31 11:37:52;;;;;;;;;;;;;;;26.02;34.69;93898.34;4890497;29;7214;-60
2022/05/31 11:40:19;;;;;;;;;;;;;;;26.01;34.80;93899.63;4893658;29;7004;-60
2022/05/31 11:43:29;;;;;;;;;;;;;;;26.02;34.44;93897.59;4910478;29;8809;-60
2022/05/31 11:46:14;;;;;;;;;;;;;;;26.04;34.52;93900.56;4869465;29;9139;-60
2022/05/31 11:48:50;;;;;;;;;;;;;;;26.05;34.99;93893.81;4854078;29;9400;-61
2022/05/31 11:52:02;;;;;;;;;;;;;;;26.04;34.73;93898.56;4846594;29;7248;-60
2022/05/31 11:54:42;;;;;;;;;;;;;;;26.05;34.59;93902.06;4833703;29;9091;-60
2022/05/31 11:57:34;;;;;;;;;;;;;;;26.06;35.38;93901.53;4831568;29;9264;-61
2022/05/31 12:00:11;;;;;;;;;;;;;;;26.05;35.00;93900.06;4850498;29;9021;-60
2022/05/31 12:02:49;;;;;;;;;;;;;;;26.08;35.06;93906.53;4831861;29;9443;-60
2022/05/31 12:05:31;;;;;;;;;;;;;;;26.07;35.16;93902.28;4854703;29;8755;-60
2022/05/31 12:08:21;;;;;;;;;;;;;;;26.11;35.42;93902.75;4849562;29;9488;-61
2022/05/31 12:10:53;;;;;;;;;;;;;;;26.10;35.12;93892.97;4846811;29;8752;-60
2022/05/31 12:13:21;;;;;;;;;;;;;;;26.10;34.41;93895.75;4853207;29;7282;-61
2022/05/31 12:15:57;;;;;;;;;;;;;;;26.10;34.58;93893.75;4879358;29;7265;-60
2022/05/31 12:19:02;;;;;;;;;;;;;;;26.12;34.76;93899.47;4912417;29;7331;-60
2022/05/31 12:21:50;;;;;;;;;;;;;;;26.11;34.31;93898.00;4954414;28;8895;-60
2022/05/31 12:24:26;;;;;;;;;;;;;;;26.11;34.48;93902.75;5020531;28;7298;-60
2022/05/31 12:27:18;;;;;;;;;;;;;;;26.11;34.43;93906.25;4990522;28;7421;-60
2022/05/31 12:29:58;;;;;;;;;;;;;;;26.12;34.83;93904.25;4965238;28;8723;-61
2022/05/31 12:32:42;;;;;;;;;;;;;;;26.12;35.51;93904.97;4968881;28;9098;-60
2022/05/31 12:35:31;;;;;;;;;;;;;;;26.12;35.23;93910.50;4980774;28;8261;-60
2022/05/31 12:38:02;;;;;;;;;;;;;;;26.14;35.18;93898.97;4983813;28;9314;-60
2022/05/31 12:40:34;;;;;;;;;;;;;;;26.13;35.60;93900.97;4973380;28;7674;-60
2022/05/31 12:43:12;;;;;;;;;;;;;;;26.12;35.32;93902.22;4981586;28;7058;-60
2022/05/31 12:45:47;;;;;;;;;;;;;;;26.15;34.92;93914.97;4979742;28;7226;-61
2022/05/31 12:48:28;;;;;;;;;;;;;;;26.15;35.64;93909.44;4966931;28;7948;-61
2022/05/31 12:50:57;;;;;;;;;;;;;;;26.16;35.67;93910.91;4967558;28;9042;-60
2022/05/31 12:54:03;;;;;;;;;;;;;;;26.15;35.46;93909.44;4970446;28;9131;-61
2022/05/31 12:56:55;;;;;;;;;;;;;;;26.16;34.91;93899.16;4927446;29;9751;-60
2022/05/31 12:59:48;;;;;;;;;;;;;;;26.19;35.73;93902.91;4916437;29;8744;-61
2022/05/31 13:02:29;;;;;;;;;;;;;;;26.16;35.38;93897.13;4931925;29;7870;-60
2022/05/31 13:05:05;;;;;;;;;;;;;;;26.16;35.52;93902.66;4930207;29;9398;-60
2022/05/31 13:07:45;;;;;;;;;;;;;;;26.19;34.89;93897.38;4936059;28;7890;-60
2022/05/31 13:20:43;;;;;;;;;;;;;;;26.21;35.76;93881.06;4894300;29;9484;-60
2022/05/31 13:23:28;;;;;;;;;;;;;;;26.21;35.31;93883.81;4870692;29;7759;-60
2022/05/31 13:26:04;;;;;;;;;;;;;;;26.23;34.92;93886.78;4898050;29;9253;-60
2022/05/31 13:28:55;;;;;;;;;;;;;;;26.27;35.66;93878.94;4925592;28;7287;-60
2022/05/31 13:31:33;;;;;;;;;;;;;;;26.25;35.26;93875.97;4950950;28;7000;-61
2022/05/31 13:34:37;;;;;;;;;;;;;;;26.26;35.66;93885.72;4943769;28;9414;-60
2022/05/31 13:37:28;;;;;;;;;;;;;;;26.27;35.74;93881.69;4902812;29;7199;-60
2022/05/31 13:39:54;;;;;;;;;;;;;;;26.26;35.51;93872.69;4900556;29;7821;-60
2022/05/31 13:42:38;;;;;;;;;;;;;;;26.26;35.29;93880.94;4878811;29;7298;-61
2022/05/31 13:45:10;;;;;;;;;;;;;;;26.27;34.77;93884.47;4875499;29;7444;-61
2022/05/31 13:47:49;;;;;;;;;;;;;;;26.27;34.87;93884.47;4916187;28;7995;-61
2022/05/31 13:50:22;;;;;;;;;;;;;;;26.27;35.33;93895.47;4926372;28;7168;-61
2022/05/31 13:52:51;;;;;;;;;;;;;;;26.25;35.19;93892.50;4919810;28;7323;-60
2022/05/31 13:55:24;;;;;;;;;;;;;;;26.24;35.50;93908.31;4922428;28;7213;-60
2022/05/31 13:58:13;;;;;;;;;;;;;;;26.25;35.48;93906.28;4908509;29;7430;-60
2022/05/31 14:00:38;;;;;;;;;;;;;;;26.24;35.82;93910.31;4944621;28;9111;-61
2022/05/31 14:03:38;;;;;;;;;;;;;;;26.24;36.02;93913.06;4927374;28;7241;-60
2022/05/31 14:06:13;;;;;;;;;;;;;;;26.24;35.73;93913.06;4915912;29;7007;-61
2022/05/31 14:08:57;;;;;;;;;;;;;;;26.22;35.06;93902.56;4910928;29;7431;-61
2022/05/31 14:11:53;;;;;;;;;;;;;;;26.23;35.21;93911.59;4967970;28;7064;-60
2022/05/31 14:14:35;;;;;;;;;;;;;;;26.23;35.35;93911.59;4987805;28;9138;-61
2022/05/31 14:17:03;;;;;;;;;;;;;;;26.23;35.95;93914.34;4971815;28;6985;-60
2022/05/31 14:19:33;;;;;;;;;;;;;;;26.24;35.11;93921.34;4967827;28;9215;-60
2022/05/31 14:22:37;;;;;;;;;;;;;;;26.23;36.06;93922.63;4988738;28;8913;-60
2022/05/31 14:25:07;;;;;;;;;;;;;;;26.22;35.21;93932.91;4979621;28;6860;-60
2022/05/31 14:27:42;;;;;;;;;;;;;;;26.23;35.21;93928.13;4964564;28;7086;-60
2022/05/31 14:30:45;;;;;;;;;;;;;;;26.23;35.54;93931.63;4966034;28;7376;-60
2022/05/31 14:33:13;;;;;;;;;;;;;;;26.23;35.02;93917.09;4965911;28;7131;-60
2022/05/31 14:35:48;;;;;;;;;;;;;;;26.24;35.59;93924.09;4963849;28;7069;-60